sensor_id;sensor_type;location;lat;lon;timestamp;pressure;altitude;pressure_sealevel;temperature;humidity
59487;BME280;45298;54.918;73.504;2024-02-21T00:02:02;103166.84;;;-28.59;69.69
59487;BME280;45298;54.918;73.504;2024-02-21T00:04:31;103153.97;;;-28.68;69.48
59487;BME280;45298;54.918;73.504;2024-02-21T00:07:00;103156.66;;;-28.67;69.76
59487;BME280;45298;54.918;73.504;2024-02-21T00:09:30;103146.25;;;-28.70;69.78
59487;BME280;45298;54.918;73.504;2024-02-21T00:11:58;103146.94;;;-28.71;69.59
59487;BME280;45298;54.918;73.504;2024-02-21T00:14:28;103144.44;;;-28.71;69.51
59487;BME280;45298;54.918;73.504;2024-02-21T00:16:56;103096.16;;;-29.07;69.67
59487;BME280;45298;54.918;73.504;2024-02-21T00:19:25;103169.13;;;-28.67;69.92
59487;BME280;45298;54.918;73.504;2024-02-21T00:21:54;103151.22;;;-28.70;69.89
59487;BME280;45298;54.918;73.504;2024-02-21T00:24:23;103163.69;;;-28.70;69.67
59487;BME280;45298;54.918;73.504;2024-02-21T00:26:54;103163.53;;;-28.77;69.47
59487;BME280;45298;54.918;73.504;2024-02-21T00:29:23;103139.56;;;-28.88;69.77
59487;BME280;45298;54.918;73.504;2024-02-21T00:31:52;103158.75;;;-28.75;70.09
59487;BME280;45298;54.918;73.504;2024-02-21T00:34:21;103140.00;;;-28.79;70.02
59487;BME280;45298;54.918;73.504;2024-02-21T00:36:50;103151.28;;;-28.75;69.72
59487;BME280;45298;54.918;73.504;2024-02-21T00:39:18;103144.50;;;-28.77;69.77
59487;BME280;45298;54.918;73.504;2024-02-21T00:41:47;103166.47;;;-28.74;69.72
59487;BME280;45298;54.918;73.504;2024-02-21T00:44:16;103083.94;;;-29.11;69.74
59487;BME280;45298;54.918;73.504;2024-02-21T00:46:45;103151.69;;;-28.72;69.91
59487;BME280;45298;54.918;73.504;2024-02-21T00:49:15;103151.22;;;-28.70;70.10
59487;BME280;45298;54.918;73.504;2024-02-21T00:51:56;103130.47;;;-28.76;70.09
59487;BME280;45298;54.918;73.504;2024-02-21T00:54:25;103084.81;;;-28.99;70.02
59487;BME280;45298;54.918;73.504;2024-02-21T00:57:06;103154.41;;;-28.65;70.03
59487;BME280;45298;54.918;73.504;2024-02-21T00:59:35;103122.78;;;-28.78;70.16
59487;BME280;45298;54.918;73.504;2024-02-21T01:02:16;103150.78;;;-28.62;69.88
59487;BME280;45298;54.918;73.504;2024-02-21T01:04:47;103120.22;;;-28.72;70.18
59487;BME280;45298;54.918;73.504;2024-02-21T01:07:16;103133.13;;;-28.69;69.83
59487;BME280;45298;54.918;73.504;2024-02-21T01:09:44;103116.22;;;-28.77;69.96
59487;BME280;45298;54.918;73.504;2024-02-21T01:12:13;103125.66;;;-28.69;70.02
59487;BME280;45298;54.918;73.504;2024-02-21T01:14:42;103124.28;;;-28.67;70.19
59487;BME280;45298;54.918;73.504;2024-02-21T01:17:12;103100.19;;;-28.85;69.84
59487;BME280;45298;54.918;73.504;2024-02-21T01:19:40;103127.25;;;-28.69;70.40
59487;BME280;45298;54.918;73.504;2024-02-21T01:22:10;103105.09;;;-28.73;70.36
59487;BME280;45298;54.918;73.504;2024-02-21T01:24:39;103126.31;;;-28.70;70.32
59487;BME280;45298;54.918;73.504;2024-02-21T01:27:08;103124.06;;;-28.68;70.16
59487;BME280;45298;54.918;73.504;2024-02-21T01:29:36;103099.03;;;-28.81;70.22
59487;BME280;45298;54.918;73.504;2024-02-21T01:32:05;103118.03;;;-28.76;70.03
59487;BME280;45298;54.918;73.504;2024-02-21T01:34:34;103106.03;;;-28.84;70.06
59487;BME280;45298;54.918;73.504;2024-02-21T01:37:04;103111.72;;;-28.85;70.16
59487;BME280;45298;54.918;73.504;2024-02-21T01:39:35;103096.78;;;-28.91;70.25
59487;BME280;45298;54.918;73.504;2024-02-21T01:42:05;103096.13;;;-28.96;69.93
59487;BME280;45298;54.918;73.504;2024-02-21T01:44:34;103110.59;;;-28.93;70.11
59487;BME280;45298;54.918;73.504;2024-02-21T01:47:18;103111.50;;;-28.98;70.04
59487;BME280;45298;54.918;73.504;2024-02-21T01:49:49;103108.81;;;-29.00;69.92
59487;BME280;45298;54.918;73.504;2024-02-21T01:52:19;103108.84;;;-29.05;70.00
59487;BME280;45298;54.918;73.504;2024-02-21T01:54:49;103098.69;;;-29.24;69.64
59487;BME280;45298;54.918;73.504;2024-02-21T01:57:18;103099.59;;;-29.24;69.89
59487;BME280;45298;54.918;73.504;2024-02-21T01:59:48;103103.88;;;-29.23;69.84
59487;BME280;45298;54.918;73.504;2024-02-21T02:02:18;103088.72;;;-29.30;70.12
59487;BME280;45298;54.918;73.504;2024-02-21T02:04:48;103059.41;;;-29.49;70.06
59487;BME280;45298;54.918;73.504;2024-02-21T02:07:17;103119.03;;;-29.15;70.10
59487;BME280;45298;54.918;73.504;2024-02-21T02:09:48;103049.03;;;-29.52;69.67
59487;BME280;45298;54.918;73.504;2024-02-21T02:12:30;103094.38;;;-29.31;69.62
59487;BME280;45298;54.918;73.504;2024-02-21T02:15:00;103083.13;;;-29.40;69.59
59487;BME280;45298;54.918;73.504;2024-02-21T02:17:30;103051.06;;;-29.67;69.52
59487;BME280;45298;54.918;73.504;2024-02-21T02:20:12;103042.91;;;-29.66;69.71
59487;BME280;45298;54.918;73.504;2024-02-21T02:22:43;103088.78;;;-29.41;69.58
59487;BME280;45298;54.918;73.504;2024-02-21T02:25:13;103111.56;;;-29.27;69.72
59487;BME280;45298;54.918;73.504;2024-02-21T02:27:43;103095.78;;;-29.39;69.46
59487;BME280;45298;54.918;73.504;2024-02-21T02:30:15;103113.59;;;-29.30;69.61
59487;BME280;45298;54.918;73.504;2024-02-21T02:32:47;103124.25;;;-29.25;69.51
59487;BME280;45298;54.918;73.504;2024-02-21T02:35:16;103111.13;;;-29.30;69.66
59487;BME280;45298;54.918;73.504;2024-02-21T02:37:49;103084.94;;;-29.39;69.51
59487;BME280;45298;54.918;73.504;2024-02-21T02:40:21;103098.69;;;-29.30;69.68
59487;BME280;45298;54.918;73.504;2024-02-21T02:42:50;103104.09;;;-29.21;69.55
59487;BME280;45298;54.918;73.504;2024-02-21T02:45:23;103100.94;;;-29.14;69.40
59487;BME280;45298;54.918;73.504;2024-02-21T02:47:55;103081.50;;;-29.28;69.60
59487;BME280;45298;54.918;73.504;2024-02-21T02:50:26;103102.28;;;-29.16;69.26
59487;BME280;45298;54.918;73.504;2024-02-21T02:52:57;103109.72;;;-29.05;69.37
59487;BME280;45298;54.918;73.504;2024-02-21T02:55:26;103092.97;;;-29.06;69.57
59487;BME280;45298;54.918;73.504;2024-02-21T02:57:55;103086.88;;;-28.97;69.57
59487;BME280;45298;54.918;73.504;2024-02-21T03:00:25;103106.03;;;-28.73;69.86
59487;BME280;45298;54.918;73.504;2024-02-21T03:02:53;103097.13;;;-28.65;69.75
59487;BME280;45298;54.918;73.504;2024-02-21T03:05:24;103095.31;;;-28.66;69.66
59487;BME280;45298;54.918;73.504;2024-02-21T03:07:53;103069.72;;;-28.65;69.50
59487;BME280;45298;54.918;73.504;2024-02-21T03:10:24;103079.38;;;-28.50;69.81
59487;BME280;45298;54.918;73.504;2024-02-21T03:12:53;103103.03;;;-28.23;70.04
59487;BME280;45298;54.918;73.504;2024-02-21T03:15:22;103086.69;;;-28.21;69.74
59487;BME280;45298;54.918;73.504;2024-02-21T03:17:50;103098.13;;;-28.05;69.80
59487;BME280;45298;54.918;73.504;2024-02-21T03:20:20;103107.06;;;-27.88;70.11
59487;BME280;45298;54.918;73.504;2024-02-21T03:22:49;103044.94;;;-28.11;69.82
59487;BME280;45298;54.918;73.504;2024-02-21T03:25:18;103094.44;;;-27.65;70.21
59487;BME280;45298;54.918;73.504;2024-02-21T03:27:48;103101.56;;;-27.50;70.11
59487;BME280;45298;54.918;73.504;2024-02-21T03:30:17;103090.53;;;-27.39;70.03
59487;BME280;45298;54.918;73.504;2024-02-21T03:32:46;103091.34;;;-27.27;69.89
59487;BME280;45298;54.918;73.504;2024-02-21T03:35:15;103100.66;;;-27.07;70.00
59487;BME280;45298;54.918;73.504;2024-02-21T03:37:45;103078.75;;;-26.60;69.78
59487;BME280;45298;54.918;73.504;2024-02-21T03:40:14;103093.44;;;-25.22;69.88
59487;BME280;45298;54.918;73.504;2024-02-21T03:42:43;103092.97;;;-24.00;69.45
59487;BME280;45298;54.918;73.504;2024-02-21T03:45:12;103057.63;;;-23.13;68.17
59487;BME280;45298;54.918;73.504;2024-02-21T03:47:40;103088.44;;;-22.23;66.96
59487;BME280;45298;54.918;73.504;2024-02-21T03:50:09;103084.72;;;-21.61;65.65
59487;BME280;45298;54.918;73.504;2024-02-21T03:52:38;103068.88;;;-21.08;65.91
59487;BME280;45298;54.918;73.504;2024-02-21T03:55:08;103078.31;;;-20.76;64.45
59487;BME280;45298;54.918;73.504;2024-02-21T03:57:37;103060.69;;;-21.29;65.54
59487;BME280;45298;54.918;73.504;2024-02-21T04:00:07;103083.56;;;-21.56;64.92
59487;BME280;45298;54.918;73.504;2024-02-21T04:02:40;103078.91;;;-22.11;65.96
59487;BME280;45298;54.918;73.504;2024-02-21T04:05:09;103071.00;;;-22.36;65.82
59487;BME280;45298;54.918;73.504;2024-02-21T04:07:41;103076.91;;;-22.42;66.32
59487;BME280;45298;54.918;73.504;2024-02-21T04:10:12;103068.97;;;-22.60;66.96
59487;BME280;45298;54.918;73.504;2024-02-21T04:12:41;103068.19;;;-22.81;67.03
59487;BME280;45298;54.918;73.504;2024-02-21T04:15:10;103030.69;;;-23.21;67.01
59487;BME280;45298;54.918;73.504;2024-02-21T04:17:39;103013.97;;;-23.35;66.69
59487;BME280;45298;54.918;73.504;2024-02-21T04:20:14;103059.97;;;-23.21;66.89
59487;BME280;45298;54.918;73.504;2024-02-21T04:22:43;103054.88;;;-23.29;67.25
59487;BME280;45298;54.918;73.504;2024-02-21T04:25:16;103069.47;;;-23.26;67.43
59487;BME280;45298;54.918;73.504;2024-02-21T04:27:45;103060.53;;;-23.44;67.20
59487;BME280;45298;54.918;73.504;2024-02-21T04:30:14;103055.34;;;-23.46;67.40
59487;BME280;45298;54.918;73.504;2024-02-21T04:32:44;103054.59;;;-23.52;67.30
59487;BME280;45298;54.918;73.504;2024-02-21T04:35:13;103065.94;;;-23.41;67.40
59487;BME280;45298;54.918;73.504;2024-02-21T04:37:42;103067.19;;;-23.45;67.32
59487;BME280;45298;54.918;73.504;2024-02-21T04:40:13;103055.34;;;-23.46;67.37
59487;BME280;45298;54.918;73.504;2024-02-21T04:42:43;103056.22;;;-23.45;67.55
59487;BME280;45298;54.918;73.504;2024-02-21T04:45:12;103064.22;;;-23.35;67.34
59487;BME280;45298;54.918;73.504;2024-02-21T04:47:42;103056.19;;;-23.25;67.48
59487;BME280;45298;54.918;73.504;2024-02-21T04:50:11;103050.06;;;-23.20;67.74
59487;BME280;45298;54.918;73.504;2024-02-21T04:52:41;103054.03;;;-23.15;67.25
59487;BME280;45298;54.918;73.504;2024-02-21T04:55:10;103044.88;;;-23.21;67.44
59487;BME280;45298;54.918;73.504;2024-02-21T04:57:39;103048.09;;;-23.22;67.02
59487;BME280;45298;54.918;73.504;2024-02-21T05:00:08;103041.13;;;-23.10;67.62
59487;BME280;45298;54.918;73.504;2024-02-21T05:02:38;103031.47;;;-23.07;67.36
59487;BME280;45298;54.918;73.504;2024-02-21T05:05:07;103036.38;;;-22.94;67.22
59487;BME280;45298;54.918;73.504;2024-02-21T05:07:37;103039.44;;;-22.83;66.77
59487;BME280;45298;54.918;73.504;2024-02-21T05:10:07;103041.31;;;-22.67;67.17
59487;BME280;45298;54.918;73.504;2024-02-21T05:12:36;103028.53;;;-22.54;67.06
59487;BME280;45298;54.918;73.504;2024-02-21T05:15:05;103028.75;;;-22.31;67.24
59487;BME280;45298;54.918;73.504;2024-02-21T05:17:34;103028.06;;;-22.08;66.85
59487;BME280;45298;54.918;73.504;2024-02-21T05:20:03;103035.59;;;-21.79;66.97
59487;BME280;45298;54.918;73.504;2024-02-21T05:22:33;103025.13;;;-21.61;67.48
59487;BME280;45298;54.918;73.504;2024-02-21T05:25:02;103038.38;;;-21.40;66.47
59487;BME280;45298;54.918;73.504;2024-02-21T05:27:31;103039.59;;;-21.22;67.23
59487;BME280;45298;54.918;73.504;2024-02-21T05:30:00;103023.53;;;-21.15;66.25
59487;BME280;45298;54.918;73.504;2024-02-21T05:32:29;103027.78;;;-20.92;65.89
59487;BME280;45298;54.918;73.504;2024-02-21T05:34:58;103035.53;;;-20.68;66.19
59487;BME280;45298;54.918;73.504;2024-02-21T05:37:27;103043.78;;;-20.54;65.79
59487;BME280;45298;54.918;73.504;2024-02-21T05:39:56;103021.19;;;-20.45;65.90
59487;BME280;45298;54.918;73.504;2024-02-21T05:42:25;103002.53;;;-20.31;65.96
59487;BME280;45298;54.918;73.504;2024-02-21T05:44:54;103012.94;;;-20.28;64.90
59487;BME280;45298;54.918;73.504;2024-02-21T05:47:22;103012.53;;;-20.24;65.53
59487;BME280;45298;54.918;73.504;2024-02-21T05:49:51;103023.50;;;-19.93;65.70
59487;BME280;45298;54.918;73.504;2024-02-21T05:52:22;102970.41;;;-20.09;65.80
59487;BME280;45298;54.918;73.504;2024-02-21T05:54:51;103017.81;;;-19.67;65.37
59487;BME280;45298;54.918;73.504;2024-02-21T05:57:20;102997.38;;;-19.62;65.25
59487;BME280;45298;54.918;73.504;2024-02-21T05:59:49;103010.25;;;-19.51;65.09
59487;BME280;45298;54.918;73.504;2024-02-21T06:02:18;102972.88;;;-19.70;64.71
59487;BME280;45298;54.918;73.504;2024-02-21T06:04:46;103000.81;;;-19.45;64.19
59487;BME280;45298;54.918;73.504;2024-02-21T06:07:15;103019.16;;;-19.23;64.92
59487;BME280;45298;54.918;73.504;2024-02-21T06:09:44;102973.94;;;-19.20;65.32
59487;BME280;45298;54.918;73.504;2024-02-21T06:12:13;103023.88;;;-18.69;64.63
59487;BME280;45298;54.918;73.504;2024-02-21T06:14:42;102998.56;;;-18.69;64.62
59487;BME280;45298;54.918;73.504;2024-02-21T06:17:11;103010.38;;;-18.61;63.92
59487;BME280;45298;54.918;73.504;2024-02-21T06:19:41;103029.66;;;-18.29;64.22
59487;BME280;45298;54.918;73.504;2024-02-21T06:22:11;103020.94;;;-18.15;64.44
59487;BME280;45298;54.918;73.504;2024-02-21T06:24:40;103019.00;;;-18.09;63.79
59487;BME280;45298;54.918;73.504;2024-02-21T06:27:08;103004.09;;;-18.15;63.50
59487;BME280;45298;54.918;73.504;2024-02-21T06:29:40;103025.59;;;-17.94;63.28
59487;BME280;45298;54.918;73.504;2024-02-21T06:32:09;103009.50;;;-17.94;63.74
59487;BME280;45298;54.918;73.504;2024-02-21T06:34:37;102972.09;;;-17.97;64.10
59487;BME280;45298;54.918;73.504;2024-02-21T06:37:06;103005.91;;;-17.63;63.14
59487;BME280;45298;54.918;73.504;2024-02-21T06:39:35;103016.50;;;-17.49;63.56
59487;BME280;45298;54.918;73.504;2024-02-21T06:42:06;103020.56;;;-17.34;63.68
59487;BME280;45298;54.918;73.504;2024-02-21T06:44:35;103018.97;;;-17.15;62.86
59487;BME280;45298;54.918;73.504;2024-02-21T06:47:08;103016.69;;;-16.86;63.29
59487;BME280;45298;54.918;73.504;2024-02-21T06:49:37;102999.81;;;-16.68;63.56
59487;BME280;45298;54.918;73.504;2024-02-21T06:52:06;103004.25;;;-16.48;63.07
59487;BME280;45298;54.918;73.504;2024-02-21T06:54:35;103012.00;;;-16.46;62.98
59487;BME280;45298;54.918;73.504;2024-02-21T06:57:04;103017.72;;;-16.66;62.22
59487;BME280;45298;54.918;73.504;2024-02-21T06:59:33;103001.59;;;-16.84;61.59
59487;BME280;45298;54.918;73.504;2024-02-21T07:02:02;102993.53;;;-16.72;63.10
59487;BME280;45298;54.918;73.504;2024-02-21T07:04:30;102990.53;;;-16.67;63.26
59487;BME280;45298;54.918;73.504;2024-02-21T07:06:59;102998.44;;;-16.47;62.87
59487;BME280;45298;54.918;73.504;2024-02-21T07:09:28;102993.00;;;-16.32;62.13
59487;BME280;45298;54.918;73.504;2024-02-21T07:12:00;102998.94;;;-16.14;61.53
59487;BME280;45298;54.918;73.504;2024-02-21T07:14:28;102955.81;;;-16.41;61.57
59487;BME280;45298;54.918;73.504;2024-02-21T07:16:57;102990.69;;;-16.12;62.39
59487;BME280;45298;54.918;73.504;2024-02-21T07:19:39;102952.06;;;-16.35;61.60
59487;BME280;45298;54.918;73.504;2024-02-21T07:22:08;102956.59;;;-16.50;62.00
59487;BME280;45298;54.918;73.504;2024-02-21T07:24:37;102977.06;;;-16.49;62.61
59487;BME280;45298;54.918;73.504;2024-02-21T07:27:06;102971.78;;;-16.33;61.65
59487;BME280;45298;54.918;73.504;2024-02-21T07:29:34;102989.25;;;-16.27;62.10
59487;BME280;45298;54.918;73.504;2024-02-21T07:32:03;102972.88;;;-16.39;60.78
59487;BME280;45298;54.918;73.504;2024-02-21T07:34:32;102975.50;;;-16.29;62.14
59487;BME280;45298;54.918;73.504;2024-02-21T07:37:01;102986.13;;;-16.33;62.43
59487;BME280;45298;54.918;73.504;2024-02-21T07:39:36;102973.19;;;-16.08;63.43
59487;BME280;45298;54.918;73.504;2024-02-21T07:42:06;102965.03;;;-15.87;62.32
59487;BME280;45298;54.918;73.504;2024-02-21T07:44:34;102969.53;;;-15.93;62.03
59487;BME280;45298;54.918;73.504;2024-02-21T07:47:04;102969.44;;;-15.84;63.18
59487;BME280;45298;54.918;73.504;2024-02-21T07:49:45;102927.91;;;-16.13;61.76
59487;BME280;45298;54.918;73.504;2024-02-21T07:52:17;102951.94;;;-16.00;62.49
59487;BME280;45298;54.918;73.504;2024-02-21T07:54:56;102956.72;;;-16.40;61.69
59487;BME280;45298;54.918;73.504;2024-02-21T07:57:31;102966.00;;;-16.41;63.63
59487;BME280;45298;54.918;73.504;2024-02-21T08:00:00;102963.19;;;-16.61;62.26
59487;BME280;45298;54.918;73.504;2024-02-21T08:02:38;102954.38;;;-16.74;62.67
59487;BME280;45298;54.918;73.504;2024-02-21T08:05:07;102967.09;;;-16.74;62.60
59487;BME280;45298;54.918;73.504;2024-02-21T08:07:36;102963.06;;;-16.89;62.37
59487;BME280;45298;54.918;73.504;2024-02-21T08:10:05;102960.88;;;-17.04;62.38
59487;BME280;45298;54.918;73.504;2024-02-21T08:12:38;102936.19;;;-16.87;63.04
59487;BME280;45298;54.918;73.504;2024-02-21T08:15:07;102956.31;;;-16.62;63.04
59487;BME280;45298;54.918;73.504;2024-02-21T08:17:40;102947.50;;;-16.66;62.57
59487;BME280;45298;54.918;73.504;2024-02-21T08:20:09;102939.75;;;-16.67;62.83
59487;BME280;45298;54.918;73.504;2024-02-21T08:22:39;102945.56;;;-16.60;63.01
59487;BME280;45298;54.918;73.504;2024-02-21T08:25:07;102947.53;;;-16.83;61.94
59487;BME280;45298;54.918;73.504;2024-02-21T08:27:37;102947.41;;;-16.94;63.04
59487;BME280;45298;54.918;73.504;2024-02-21T08:30:06;102959.78;;;-16.79;63.24
59487;BME280;45298;54.918;73.504;2024-02-21T08:32:36;102973.53;;;-16.86;62.53
59487;BME280;45298;54.918;73.504;2024-02-21T08:35:05;102963.81;;;-16.90;62.54
59487;BME280;45298;54.918;73.504;2024-02-21T08:37:34;102956.66;;;-16.94;62.79
59487;BME280;45298;54.918;73.504;2024-02-21T08:40:03;102945.38;;;-17.15;61.91
59487;BME280;45298;54.918;73.504;2024-02-21T08:42:39;102891.16;;;-17.25;63.74
59487;BME280;45298;54.918;73.504;2024-02-21T08:45:09;102946.94;;;-16.81;63.51
59487;BME280;45298;54.918;73.504;2024-02-21T08:47:41;102950.38;;;-16.89;61.49
59487;BME280;45298;54.918;73.504;2024-02-21T08:50:10;102963.13;;;-16.98;61.95
59487;BME280;45298;54.918;73.504;2024-02-21T08:52:54;102940.44;;;-16.96;63.28
59487;BME280;45298;54.918;73.504;2024-02-21T08:55:23;102964.88;;;-16.88;63.27
59487;BME280;45298;54.918;73.504;2024-02-21T08:57:52;102942.81;;;-17.07;63.38
59487;BME280;45298;54.918;73.504;2024-02-21T09:00:21;102948.19;;;-17.12;63.64
59487;BME280;45298;54.918;73.504;2024-02-21T09:02:55;102943.13;;;-17.30;62.62
59487;BME280;45298;54.918;73.504;2024-02-21T09:05:24;102939.97;;;-17.45;63.64
59487;BME280;45298;54.918;73.504;2024-02-21T09:07:54;102937.13;;;-17.66;62.62
59487;BME280;45298;54.918;73.504;2024-02-21T09:10:25;102944.84;;;-17.73;63.13
59487;BME280;45298;54.918;73.504;2024-02-21T09:12:54;102946.38;;;-17.75;63.50
59487;BME280;45298;54.918;73.504;2024-02-21T09:15:24;102951.28;;;-17.68;64.09
59487;BME280;45298;54.918;73.504;2024-02-21T09:17:55;102941.53;;;-17.89;63.33
59487;BME280;45298;54.918;73.504;2024-02-21T09:20:24;102955.41;;;-17.95;62.66
59487;BME280;45298;54.918;73.504;2024-02-21T09:22:53;102926.56;;;-18.21;63.13
59487;BME280;45298;54.918;73.504;2024-02-21T09:25:21;102929.69;;;-18.24;63.42
59487;BME280;45298;54.918;73.504;2024-02-21T09:27:50;102956.19;;;-18.29;63.37
59487;BME280;45298;54.918;73.504;2024-02-21T09:30:20;102955.72;;;-18.34;63.27
59487;BME280;45298;54.918;73.504;2024-02-21T09:32:49;102887.63;;;-18.73;63.61
59487;BME280;45298;54.918;73.504;2024-02-21T09:35:19;102952.59;;;-18.31;63.94
59487;BME280;45298;54.918;73.504;2024-02-21T09:37:51;102949.97;;;-18.24;63.71
59487;BME280;45298;54.918;73.504;2024-02-21T09:40:20;102950.19;;;-18.39;63.23
59487;BME280;45298;54.918;73.504;2024-02-21T09:43:02;102952.78;;;-18.55;62.74
59487;BME280;45298;54.918;73.504;2024-02-21T09:45:33;102949.94;;;-18.58;63.29
59487;BME280;45298;54.918;73.504;2024-02-21T09:50:43;102948.34;;;-18.48;63.71
59487;BME280;45298;54.918;73.504;2024-02-21T09:53:14;102936.53;;;-18.57;63.62
59487;BME280;45298;54.918;73.504;2024-02-21T09:55:44;102950.78;;;-18.41;63.38
59487;BME280;45298;54.918;73.504;2024-02-21T09:58:15;102941.25;;;-18.44;63.74
59487;BME280;45298;54.918;73.504;2024-02-21T10:00:44;102936.09;;;-18.52;62.89
59487;BME280;45298;54.918;73.504;2024-02-21T10:03:13;102935.16;;;-18.62;63.10
59487;BME280;45298;54.918;73.504;2024-02-21T10:05:47;102954.28;;;-18.57;63.62
59487;BME280;45298;54.918;73.504;2024-02-21T10:08:19;102933.19;;;-18.73;63.41
59487;BME280;45298;54.918;73.504;2024-02-21T10:10:51;102945.03;;;-18.81;63.72
59487;BME280;45298;54.918;73.504;2024-02-21T10:13:25;102937.09;;;-18.93;63.49
59487;BME280;45298;54.918;73.504;2024-02-21T10:16:08;102951.22;;;-18.95;63.87
59487;BME280;45298;54.918;73.504;2024-02-21T10:18:37;102949.84;;;-19.00;63.60
59487;BME280;45298;54.918;73.504;2024-02-21T10:21:08;102943.19;;;-19.16;62.97
59487;BME280;45298;54.918;73.504;2024-02-21T10:23:49;102944.53;;;-19.10;63.39
59487;BME280;45298;54.918;73.504;2024-02-21T10:26:20;102952.97;;;-19.19;62.60
59487;BME280;45298;54.918;73.504;2024-02-21T10:28:50;102947.94;;;-19.19;62.99
59487;BME280;45298;54.918;73.504;2024-02-21T10:31:25;102945.94;;;-19.21;63.02
59487;BME280;45298;54.918;73.504;2024-02-21T10:34:01;102952.41;;;-19.16;63.51
59487;BME280;45298;54.918;73.504;2024-02-21T10:36:34;102947.75;;;-19.20;63.17
59487;BME280;45298;54.918;73.504;2024-02-21T10:39:02;102964.78;;;-19.10;63.04
59487;BME280;45298;54.918;73.504;2024-02-21T10:41:31;102960.63;;;-19.10;63.32
59487;BME280;45298;54.918;73.504;2024-02-21T10:44:03;102946.78;;;-19.13;63.20
59487;BME280;45298;54.918;73.504;2024-02-21T10:46:35;102953.47;;;-19.14;63.62
59487;BME280;45298;54.918;73.504;2024-02-21T10:49:20;102957.63;;;-19.14;63.38
59487;BME280;45298;54.918;73.504;2024-02-21T10:55:25;102967.34;;;-19.26;62.81
59487;BME280;45298;54.918;73.504;2024-02-21T10:57:56;102955.78;;;-19.40;63.75
59487;BME280;45298;54.918;73.504;2024-02-21T11:00:26;102913.38;;;-19.59;64.15
59487;BME280;45298;54.918;73.504;2024-02-21T11:02:59;102950.31;;;-19.36;63.94
59487;BME280;45298;54.918;73.504;2024-02-21T11:05:29;102945.06;;;-19.38;63.92
59487;BME280;45298;54.918;73.504;2024-02-21T11:07:59;102941.00;;;-19.44;64.55
59487;BME280;45298;54.918;73.504;2024-02-21T11:10:29;102961.63;;;-19.33;63.93
59487;BME280;45298;54.918;73.504;2024-02-21T11:13:08;102937.59;;;-19.45;64.54
59487;BME280;45298;54.918;73.504;2024-02-21T11:15:37;102942.00;;;-19.51;64.22
59487;BME280;45298;54.918;73.504;2024-02-21T11:18:07;102947.28;;;-19.57;63.94
59487;BME280;45298;54.918;73.504;2024-02-21T11:20:37;102943.78;;;-19.66;63.86
59487;BME280;45298;54.918;73.504;2024-02-21T11:23:06;102946.41;;;-19.73;64.76
59487;BME280;45298;54.918;73.504;2024-02-21T11:25:35;102938.09;;;-19.88;64.17
59487;BME280;45298;54.918;73.504;2024-02-21T11:28:04;102939.06;;;-19.95;64.59
59487;BME280;45298;54.918;73.504;2024-02-21T11:30:37;102938.41;;;-20.01;64.20
59487;BME280;45298;54.918;73.504;2024-02-21T11:33:07;102943.09;;;-20.04;65.23
59487;BME280;45298;54.918;73.504;2024-02-21T11:35:36;102930.38;;;-20.13;64.61
59487;BME280;45298;54.918;73.504;2024-02-21T11:38:12;102932.06;;;-20.21;64.57
59487;BME280;45298;54.918;73.504;2024-02-21T11:40:57;102940.84;;;-20.33;64.80
59487;BME280;45298;54.918;73.504;2024-02-21T11:43:26;102940.50;;;-20.37;65.18
59487;BME280;45298;54.918;73.504;2024-02-21T11:46:01;102920.75;;;-20.48;65.64
59487;BME280;45298;54.918;73.504;2024-02-21T11:48:33;102890.75;;;-20.77;65.17
59487;BME280;45298;54.918;73.504;2024-02-21T11:51:02;102938.53;;;-20.62;65.87
59487;BME280;45298;54.918;73.504;2024-02-21T11:53:32;102931.34;;;-20.67;65.81
59487;BME280;45298;54.918;73.504;2024-02-21T11:56:10;102899.53;;;-20.96;65.18
59487;BME280;45298;54.918;73.504;2024-02-21T11:58:39;102924.53;;;-20.91;65.95
59487;BME280;45298;54.918;73.504;2024-02-21T12:01:07;102936.97;;;-20.92;66.25
59487;BME280;45298;54.918;73.504;2024-02-21T12:03:36;102922.81;;;-21.06;66.30
59487;BME280;45298;54.918;73.504;2024-02-21T12:06:06;102893.97;;;-21.32;66.33
59487;BME280;45298;54.918;73.504;2024-02-21T12:08:45;102952.38;;;-21.13;65.81
59487;BME280;45298;54.918;73.504;2024-02-21T12:11:21;102924.88;;;-21.25;65.90
59487;BME280;45298;54.918;73.504;2024-02-21T12:14:02;102931.78;;;-21.32;66.53
59487;BME280;45298;54.918;73.504;2024-02-21T12:16:34;102934.88;;;-21.41;66.41
59487;BME280;45298;54.918;73.504;2024-02-21T12:19:03;102931.28;;;-21.51;66.24
59487;BME280;45298;54.918;73.504;2024-02-21T12:21:33;102897.25;;;-21.85;66.38
59487;BME280;45298;54.918;73.504;2024-02-21T12:24:27;102946.69;;;-21.71;65.96
59487;BME280;45298;54.918;73.504;2024-02-21T12:26:58;102938.44;;;-21.84;66.13
59487;BME280;45298;54.918;73.504;2024-02-21T12:29:28;102928.03;;;-21.95;66.90
59487;BME280;45298;54.918;73.504;2024-02-21T12:31:58;102918.16;;;-22.08;67.01
59487;BME280;45298;54.918;73.504;2024-02-21T12:34:27;102938.31;;;-22.08;66.70
59487;BME280;45298;54.918;73.504;2024-02-21T12:37:11;102951.44;;;-22.17;66.93
59487;BME280;45298;54.918;73.504;2024-02-21T12:39:44;102932.03;;;-22.33;66.92
59487;BME280;45298;54.918;73.504;2024-02-21T12:42:13;102923.44;;;-22.49;66.69
59487;BME280;45298;54.918;73.504;2024-02-21T12:44:42;102933.16;;;-22.53;67.08
59487;BME280;45298;54.918;73.504;2024-02-21T12:47:11;102924.19;;;-22.65;67.27
59487;BME280;45298;54.918;73.504;2024-02-21T12:49:40;102893.78;;;-22.88;66.52
59487;BME280;45298;54.918;73.504;2024-02-21T12:52:13;102928.47;;;-22.71;67.30
59487;BME280;45298;54.918;73.504;2024-02-21T12:54:42;102927.38;;;-22.81;66.49